createdAt,value
2022-07-31T00:01:33.184Z,99606.52
2022-07-31T00:04:03.429Z,99603.98
2022-07-31T00:06:33.319Z,99610.19
2022-07-31T00:09:03.123Z,99607.20
2022-07-31T00:11:33.246Z,99605.41
2022-07-31T00:14:03.649Z,99605.83
2022-07-31T00:16:33.002Z,99609.36
2022-07-31T00:19:02.227Z,99603.30
2022-07-31T00:21:31.821Z,99601.89
2022-07-31T00:24:01.056Z,99601.36
2022-07-31T00:26:30.251Z,99596.00
2022-07-31T00:28:59.461Z,99593.95
2022-07-31T00:31:28.894Z,99593.70
2022-07-31T00:33:59.277Z,99592.65
2022-07-31T00:36:30.303Z,99590.86
2022-07-31T00:38:59.749Z,99586.91
2022-07-31T00:41:39.885Z,99585.64
2022-07-31T00:44:12.244Z,99584.27
2022-07-31T00:46:42.797Z,99579.07
2022-07-31T00:49:12.128Z,99574.27
2022-07-31T00:51:42.084Z,99579.21
2022-07-31T00:54:16.290Z,99578.76
2022-07-31T00:56:52.365Z,99578.46
2022-07-31T00:59:24.544Z,99574.99
2022-07-31T01:01:54.711Z,99578.58
2022-07-31T01:04:23.936Z,99574.21
2022-07-31T01:06:53.269Z,99573.46
2022-07-31T01:09:22.775Z,99571.15
2022-07-31T01:11:58.500Z,99570.61
2022-07-31T01:14:33.379Z,99568.64
2022-07-31T01:17:04.503Z,99566.02
2022-07-31T01:19:42.859Z,99569.12
2022-07-31T01:22:39.169Z,99567.66
2022-07-31T01:25:16.789Z,99566.77
2022-07-31T01:28:01.880Z,99566.92
2022-07-31T01:30:36.192Z,99562.31
2022-07-31T01:33:10.108Z,99565.16
2022-07-31T01:35:44.077Z,99563.30
2022-07-31T01:38:16.328Z,99561.58
2022-07-31T01:40:48.752Z,99565.31
2022-07-31T01:43:23.096Z,99559.58
2022-07-31T01:45:54.594Z,99555.59
2022-07-31T01:48:24.773Z,99554.11
2022-07-31T01:50:58.786Z,99553.41
2022-07-31T01:53:28.735Z,99554.98
2022-07-31T01:56:03.452Z,99548.27
2022-07-31T01:58:38.789Z,99543.49
2022-07-31T02:01:11.270Z,99541.73
2022-07-31T02:03:43.828Z,99535.91
2022-07-31T02:06:16.919Z,99535.24
2022-07-31T02:08:47.758Z,99532.70
2022-07-31T02:11:19.759Z,99535.44
2022-07-31T02:13:50.234Z,99526.73
2022-07-31T02:16:21.135Z,99519.50
2022-07-31T02:18:52.492Z,99522.53
2022-07-31T02:21:21.803Z,99521.76
2022-07-31T02:23:52.101Z,99523.98
2022-07-31T02:26:23.215Z,99519.77
2022-07-31T02:28:52.925Z,99513.16
2022-07-31T02:31:24.107Z,99511.65
2022-07-31T02:33:53.983Z,99506.92
2022-07-31T02:36:25.043Z,99508.32
2022-07-31T02:38:57.084Z,99505.09
2022-07-31T02:41:28.021Z,99502.41
2022-07-31T02:43:58.011Z,99493.33
2022-07-31T02:46:28.625Z,99494.77
2022-07-31T02:48:58.627Z,99492.02
2022-07-31T02:51:29.082Z,99496.04
2022-07-31T02:54:12.804Z,99489.48
2022-07-31T02:56:42.948Z,99489.54
2022-07-31T02:59:12.119Z,99491.44
2022-07-31T03:01:41.657Z,99488.84
2022-07-31T03:04:11.262Z,99490.34
2022-07-31T03:06:40.842Z,99490.70
2022-07-31T03:09:10.092Z,99489.16
2022-07-31T03:11:39.410Z,99489.08
2022-07-31T03:14:11.049Z,99488.54
2022-07-31T03:16:43.387Z,99486.00
2022-07-31T03:19:14.044Z,99481.38
2022-07-31T03:21:44.297Z,99480.14
2022-07-31T03:24:13.437Z,99482.64
2022-07-31T03:26:43.115Z,99481.14
2022-07-31T03:29:42.855Z,99478.16
2022-07-31T03:32:26.022Z,99481.52
2022-07-31T03:35:21.026Z,99484.41
2022-07-31T03:38:40.500Z,99477.23
2022-07-31T03:41:30.494Z,99484.94
2022-07-31T03:44:21.296Z,99478.02
2022-07-31T03:47:25.520Z,99480.58
2022-07-31T03:50:22.845Z,99479.88
2022-07-31T03:53:15.512Z,99478.27
2022-07-31T03:56:11.911Z,99472.10
2022-07-31T03:59:07.196Z,99470.66
2022-07-31T04:01:58.887Z,99471.52
2022-07-31T04:04:53.353Z,99466.98
2022-07-31T04:07:49.204Z,99467.09
2022-07-31T04:10:48.318Z,99469.40
2022-07-31T04:13:41.950Z,99462.23
2022-07-31T04:16:36.335Z,99463.53
2022-07-31T04:19:28.107Z,99457.27
2022-07-31T04:21:57.937Z,99453.44
2022-07-31T04:24:27.245Z,99452.36
2022-07-31T04:26:58.210Z,99459.77
2022-07-31T04:29:28.496Z,99458.33
2022-07-31T04:31:58.852Z,99458.28
2022-07-31T04:34:28.154Z,99458.22
2022-07-31T04:36:57.512Z,99455.25
2022-07-31T04:39:26.657Z,99457.98
2022-07-31T04:41:57.286Z,99454.01
2022-07-31T04:44:26.440Z,99456.88
2022-07-31T04:47:00.250Z,99458.14
2022-07-31T04:49:32.417Z,99454.23
2022-07-31T04:52:02.595Z,99454.15
2022-07-31T04:54:34.036Z,99459.07
2022-07-31T04:57:04.048Z,99456.45
2022-07-31T04:59:59.119Z,99455.55
2022-07-31T05:02:22.952Z,99457.09
2022-07-31T05:04:52.682Z,99453.98
2022-07-31T05:07:28.740Z,99461.66
2022-07-31T05:09:59.221Z,99459.77
2022-07-31T05:12:28.522Z,99464.64
2022-07-31T05:14:57.681Z,99462.13
2022-07-31T05:17:26.851Z,99459.19
2022-07-31T05:19:56.060Z,99454.44
2022-07-31T05:22:25.316Z,99455.91
2022-07-31T05:24:54.478Z,99462.20
2022-07-31T05:27:23.811Z,99465.09
2022-07-31T05:29:54.296Z,99463.69
2022-07-31T05:32:24.435Z,99462.63
2022-07-31T05:34:53.936Z,99468.55
2022-07-31T05:37:24.003Z,99473.20
2022-07-31T05:39:53.198Z,99471.92
2022-07-31T05:42:22.464Z,99467.83
2022-07-31T05:44:51.752Z,99467.24
2022-07-31T05:47:21.315Z,99471.33
2022-07-31T05:49:50.674Z,99473.34
2022-07-31T05:52:19.891Z,99471.62
2022-07-31T05:54:49.541Z,99474.29
2022-07-31T05:57:33.629Z,99470.15
2022-07-31T06:00:04.389Z,99471.95
2022-07-31T06:02:34.647Z,99473.38
2022-07-31T06:05:04.252Z,99479.02
2022-07-31T06:07:33.532Z,99474.79
2022-07-31T06:10:11.240Z,99475.98
2022-07-31T06:12:40.446Z,99476.19
2022-07-31T06:15:10.787Z,99482.93
2022-07-31T06:17:44.502Z,99483.71
2022-07-31T06:20:15.416Z,99480.45
2022-07-31T06:22:45.219Z,99480.74
2022-07-31T06:25:15.018Z,99478.33
2022-07-31T06:27:44.253Z,99483.63
2022-07-31T06:30:21.146Z,99487.45
2022-07-31T06:32:50.509Z,99486.35
2022-07-31T06:35:20.091Z,99486.82
2022-07-31T06:37:49.542Z,99489.05
2022-07-31T06:40:19.114Z,99490.73
2022-07-31T06:42:48.532Z,99490.88
2022-07-31T06:45:30.072Z,99494.55
2022-07-31T06:48:07.367Z,99497.42
2022-07-31T06:50:37.440Z,99492.11
2022-07-31T06:53:06.781Z,99494.48
2022-07-31T06:55:36.114Z,99491.33
2022-07-31T06:58:06.141Z,99490.55
2022-07-31T07:00:35.497Z,99492.06
2022-07-31T07:03:04.716Z,99490.08
2022-07-31T07:05:33.904Z,99488.09
2022-07-31T07:08:05.040Z,99494.19
2022-07-31T07:10:35.399Z,99493.36
2022-07-31T07:13:08.621Z,99493.86
2022-07-31T07:15:38.336Z,99494.16
2022-07-31T07:18:07.865Z,99493.45
2022-07-31T07:20:38.290Z,99494.16
2022-07-31T07:23:07.519Z,99494.91
2022-07-31T07:25:37.091Z,99489.41
2022-07-31T07:28:07.957Z,99490.29
2022-07-31T07:30:39.557Z,99491.16
2022-07-31T07:33:09.038Z,99492.73
2022-07-31T07:35:39.246Z,99488.34
2022-07-31T07:38:09.236Z,99492.16
2022-07-31T07:40:40.046Z,99490.34
2022-07-31T07:43:09.231Z,99485.51
2022-07-31T07:45:39.747Z,99486.89
2022-07-31T07:48:08.975Z,99491.85
2022-07-31T07:50:38.253Z,99492.55
2022-07-31T07:53:08.180Z,99498.34
2022-07-31T07:55:40.271Z,99498.71
2022-07-31T07:58:11.996Z,99499.21
2022-07-31T08:00:42.453Z,99500.70
2022-07-31T08:03:49.537Z,99502.42
2022-07-31T08:06:02.202Z,99504.30
2022-07-31T08:08:31.540Z,99505.30
2022-07-31T08:11:03.251Z,99507.11
2022-07-31T08:13:32.926Z,99504.98
2022-07-31T08:16:02.276Z,99508.66
2022-07-31T08:18:32.603Z,99507.81
2022-07-31T08:21:03.299Z,99503.83
2022-07-31T08:23:32.625Z,99503.29
2022-07-31T08:26:06.677Z,99500.24
2022-07-31T08:28:36.302Z,99497.41
2022-07-31T08:31:05.600Z,99501.33
2022-07-31T08:33:36.857Z,99505.54
2022-07-31T08:36:08.830Z,99502.53
2022-07-31T08:38:38.947Z,99507.61
2022-07-31T08:41:08.266Z,99504.23
2022-07-31T08:44:00.618Z,99509.00
2022-07-31T08:46:27.274Z,99504.97
2022-07-31T08:48:58.915Z,99505.92
2022-07-31T08:51:28.676Z,99504.83
2022-07-31T08:54:00.025Z,99503.77
2022-07-31T08:56:29.904Z,99503.22
2022-07-31T08:58:59.407Z,99505.01
2022-07-31T09:01:30.098Z,99506.39
2022-07-31T09:04:00.766Z,99507.97
2022-07-31T09:06:31.071Z,99506.83
2022-07-31T09:09:00.644Z,99509.01
2022-07-31T09:11:30.565Z,99513.19
2022-07-31T09:14:02.670Z,99514.98
2022-07-31T09:16:44.745Z,99516.65
2022-07-31T09:19:51.960Z,99519.44
2022-07-31T09:22:08.471Z,99520.84
2022-07-31T09:24:40.303Z,99522.45
2022-07-31T09:27:10.494Z,99519.67
2022-07-31T09:29:41.043Z,99523.42
2022-07-31T09:32:12.057Z,99516.85
2022-07-31T09:34:41.808Z,99519.27
2022-07-31T09:37:12.700Z,99516.70
2022-07-31T09:39:52.082Z,99520.72
2022-07-31T09:42:22.727Z,99521.69
2022-07-31T09:44:53.300Z,99526.75
2022-07-31T09:47:24.184Z,99523.56
2022-07-31T09:49:58.849Z,99520.73
2022-07-31T09:52:29.589Z,99524.88
2022-07-31T09:55:16.072Z,99526.08
2022-07-31T09:57:54.767Z,99524.40
2022-07-31T10:00:25.453Z,99521.13
2022-07-31T10:02:56.960Z,99517.25
2022-07-31T10:05:28.028Z,99519.81
2022-07-31T10:07:59.861Z,99520.08
2022-07-31T10:10:30.529Z,99523.02
2022-07-31T10:13:03.860Z,99519.65
2022-07-31T10:15:36.056Z,99516.59
2022-07-31T10:18:08.987Z,99520.20
2022-07-31T10:20:42.442Z,99522.39
2022-07-31T10:23:17.023Z,99521.99
2022-07-31T10:25:53.891Z,99529.30
2022-07-31T10:28:24.690Z,99525.73
2022-07-31T10:30:55.246Z,99527.84
2022-07-31T10:33:43.752Z,99532.50
2022-07-31T10:36:20.521Z,99531.83
2022-07-31T10:38:59.289Z,99532.29
2022-07-31T10:41:46.238Z,99534.20
2022-07-31T10:44:22.677Z,99539.90
2022-07-31T10:46:52.469Z,99544.17
2022-07-31T10:49:38.709Z,99543.41
2022-07-31T10:52:08.210Z,99545.55
2022-07-31T10:54:46.049Z,99545.80
2022-07-31T10:57:24.220Z,99549.32
2022-07-31T10:59:53.820Z,99552.45
2022-07-31T11:02:34.745Z,99551.48
2022-07-31T11:05:11.586Z,99545.30
2022-07-31T11:07:41.149Z,99547.48
2022-07-31T11:10:23.938Z,99549.57
2022-07-31T11:13:02.212Z,99551.30
2022-07-31T11:15:35.743Z,99554.04
2022-07-31T11:18:24.159Z,99558.67
2022-07-31T11:21:13.625Z,99560.73
2022-07-31T11:24:02.401Z,99565.02
2022-07-31T11:26:42.109Z,99566.42
2022-07-31T11:29:58.579Z,99570.20
2022-07-31T11:32:12.454Z,99570.71
2022-07-31T11:34:47.933Z,99568.59
2022-07-31T11:37:20.273Z,99564.30
2022-07-31T11:39:52.436Z,99567.36
2022-07-31T11:42:27.742Z,99569.33
2022-07-31T11:46:21.421Z,99570.73
2022-07-31T11:48:10.956Z,99579.80
2022-07-31T11:50:44.270Z,99583.69
2022-07-31T11:53:13.954Z,99582.13
2022-07-31T11:55:48.462Z,99587.85
2022-07-31T11:58:17.353Z,99583.17
2022-07-31T12:00:51.583Z,99586.13
2022-07-31T12:03:22.723Z,99588.92
2022-07-31T12:05:53.272Z,99590.91
2022-07-31T12:08:23.861Z,99593.02
2022-07-31T12:10:55.061Z,99589.27
2022-07-31T12:13:26.389Z,99596.16
2022-07-31T12:16:02.913Z,99595.92
2022-07-31T12:18:45.907Z,99600.95
2022-07-31T12:21:16.495Z,99598.05
2022-07-31T12:23:47.060Z,99597.88
2022-07-31T12:26:26.786Z,99598.25
2022-07-31T12:29:00.401Z,99595.54
2022-07-31T12:31:31.298Z,99597.10
2022-07-31T12:34:00.936Z,99598.86
2022-07-31T12:36:30.317Z,99595.87
2022-07-31T12:39:04.687Z,99595.27
2022-07-31T12:41:43.620Z,99595.45
2022-07-31T12:44:14.864Z,99595.10
2022-07-31T12:46:51.660Z,99595.27
2022-07-31T12:49:21.070Z,99594.89
2022-07-31T12:51:50.657Z,99594.73
2022-07-31T12:54:19.948Z,99593.61
2022-07-31T12:56:49.550Z,99592.04
2022-07-31T12:59:18.741Z,99597.55
2022-07-31T13:01:48.131Z,99601.46
2022-07-31T13:04:18.362Z,99600.41
2022-07-31T13:06:50.733Z,99604.16
2022-07-31T13:09:20.658Z,99601.00
2022-07-31T13:11:54.534Z,99604.88
2022-07-31T13:14:26.738Z,99606.89
2022-07-31T13:16:57.379Z,99608.65
2022-07-31T13:19:27.080Z,99615.14
2022-07-31T13:21:56.823Z,99616.73
2022-07-31T13:24:26.760Z,99618.67
2022-07-31T13:26:58.590Z,99623.81
2022-07-31T13:29:27.892Z,99627.95
2022-07-31T13:31:57.299Z,99627.88
2022-07-31T13:34:26.537Z,99627.85
2022-07-31T13:36:58.665Z,99625.42
2022-07-31T13:39:28.372Z,99625.23
2022-07-31T13:41:57.875Z,99621.09
2022-07-31T13:44:27.817Z,99623.23
2022-07-31T13:46:57.394Z,99625.46
2022-07-31T13:49:31.682Z,99624.24
2022-07-31T13:52:01.844Z,99629.06
2022-07-31T13:54:31.533Z,99629.81
2022-07-31T13:57:00.942Z,99634.57
2022-07-31T13:59:30.212Z,99635.05
2022-07-31T14:02:05.172Z,99637.83
2022-07-31T14:04:38.391Z,99641.09
2022-07-31T14:07:09.425Z,99643.39
2022-07-31T14:09:38.925Z,99645.11
2022-07-31T14:12:16.602Z,99647.90
2022-07-31T14:14:46.677Z,99650.05
2022-07-31T14:17:17.619Z,99653.98
2022-07-31T14:19:46.943Z,99658.02
2022-07-31T14:22:17.247Z,99652.02
2022-07-31T14:24:51.263Z,99654.09
2022-07-31T14:27:21.432Z,99652.28
2022-07-31T14:29:51.926Z,99661.12
2022-07-31T14:32:22.853Z,99654.96
2022-07-31T14:34:52.794Z,99655.34
2022-07-31T14:37:22.154Z,99652.89
2022-07-31T14:39:51.898Z,99653.85
2022-07-31T14:42:22.515Z,99655.09
2022-07-31T14:44:58.600Z,99658.04
2022-07-31T14:47:34.591Z,99663.53
2022-07-31T14:50:09.895Z,99658.48
2022-07-31T14:52:41.169Z,99671.50
2022-07-31T14:55:11.839Z,99670.69
2022-07-31T14:57:45.466Z,99671.91
2022-07-31T15:00:16.769Z,99671.08
2022-07-31T15:02:49.116Z,99666.19
2022-07-31T15:06:41.099Z,99671.11
2022-07-31T15:08:09.770Z,99677.63
2022-07-31T15:10:39.050Z,99679.81
2022-07-31T15:13:09.903Z,99680.80
2022-07-31T15:15:39.538Z,99677.98
2022-07-31T15:18:09.276Z,99683.80
2022-07-31T15:20:41.388Z,99681.45
2022-07-31T15:23:10.652Z,99682.88
2022-07-31T15:25:40.083Z,99684.63
2022-07-31T15:28:09.713Z,99687.06
2022-07-31T15:30:39.052Z,99689.55
2022-07-31T15:33:08.579Z,99694.66
2022-07-31T15:35:38.337Z,99690.86
2022-07-31T15:38:09.751Z,99690.36
2022-07-31T15:40:40.278Z,99697.27
2022-07-31T15:43:10.980Z,99697.83
2022-07-31T15:45:44.301Z,99698.35
2022-07-31T15:48:20.805Z,99704.23
2022-07-31T15:50:52.669Z,99702.52
2022-07-31T15:53:37.378Z,99705.83
2022-07-31T15:56:12.407Z,99707.77
2022-07-31T15:58:45.319Z,99712.48
2022-07-31T16:01:15.217Z,99707.74
2022-07-31T16:03:55.740Z,99711.98
2022-07-31T16:06:34.586Z,99713.59
2022-07-31T16:09:15.101Z,99717.65
2022-07-31T16:12:03.908Z,99717.08
2022-07-31T16:14:35.438Z,99718.45
2022-07-31T16:17:05.376Z,99718.56
2022-07-31T16:19:41.121Z,99723.42
2022-07-31T16:22:14.442Z,99728.79
2022-07-31T16:24:48.645Z,99728.66
2022-07-31T16:27:40.675Z,99725.48
2022-07-31T16:30:18.012Z,99727.48
2022-07-31T16:32:48.045Z,99724.73
2022-07-31T16:35:21.155Z,99730.70
2022-07-31T16:37:54.118Z,99736.20
2022-07-31T16:40:29.939Z,99735.70
2022-07-31T16:43:46.774Z,99739.55
2022-07-31T16:45:52.929Z,99741.66
2022-07-31T16:48:30.239Z,99743.02
2022-07-31T16:51:02.929Z,99739.60
2022-07-31T16:54:13.101Z,99744.69
2022-07-31T16:56:26.749Z,99750.98
2022-07-31T16:59:04.452Z,99749.96
2022-07-31T17:01:53.826Z,99752.75
2022-07-31T17:04:26.767Z,99757.98
2022-07-31T17:06:58.218Z,99762.45
2022-07-31T17:09:31.390Z,99763.48
2022-07-31T17:12:04.078Z,99761.64
2022-07-31T17:14:34.068Z,99760.54
2022-07-31T17:17:08.151Z,99762.67
2022-07-31T17:19:45.240Z,99766.33
2022-07-31T17:22:18.954Z,99769.20
2022-07-31T17:24:51.207Z,99772.27
2022-07-31T17:27:25.887Z,99773.58
2022-07-31T17:29:57.645Z,99779.80
2022-07-31T17:32:27.828Z,99780.20
2022-07-31T17:35:09.869Z,99781.80
2022-07-31T17:37:56.747Z,99785.62
2022-07-31T17:40:46.021Z,99781.94
2022-07-31T17:43:27.571Z,99786.84
2022-07-31T17:46:08.529Z,99792.57
2022-07-31T17:48:48.548Z,99790.71
2022-07-31T17:51:18.338Z,99790.27
2022-07-31T17:53:55.428Z,99791.59
2022-07-31T17:56:33.172Z,99791.91
2022-07-31T17:59:09.064Z,99792.08
2022-07-31T18:01:38.514Z,99794.40
2022-07-31T18:04:07.849Z,99795.24
2022-07-31T18:06:39.089Z,99795.77
2022-07-31T18:09:08.400Z,99798.71
2022-07-31T18:11:37.809Z,99800.18
2022-07-31T18:14:07.193Z,99799.37
2022-07-31T18:16:36.734Z,99800.34
2022-07-31T18:19:06.080Z,99803.14
2022-07-31T18:21:35.858Z,99808.20
2022-07-31T18:24:06.971Z,99809.02
2022-07-31T18:26:37.127Z,99811.25
2022-07-31T18:29:08.534Z,99813.98
2022-07-31T18:31:38.533Z,99814.64
2022-07-31T18:34:08.755Z,99824.38
2022-07-31T18:36:39.064Z,99828.90
2022-07-31T18:39:08.870Z,99825.80
2022-07-31T18:41:46.825Z,99829.88
2022-07-31T18:44:18.650Z,99833.48
2022-07-31T18:46:48.387Z,99826.00
2022-07-31T18:51:01.115Z,99832.73
2022-07-31T18:52:10.734Z,99837.70
2022-07-31T18:54:40.474Z,99841.88
2022-07-31T18:57:13.135Z,99841.98
2022-07-31T18:59:43.618Z,99840.26
2022-07-31T19:02:12.971Z,99842.73
2022-07-31T19:04:45.343Z,99845.56
2022-07-31T19:07:23.643Z,99855.73
2022-07-31T19:09:58.740Z,99860.02
2022-07-31T19:12:29.822Z,99865.02
2022-07-31T19:15:05.502Z,99864.50
2022-07-31T19:18:10.401Z,99864.58
2022-07-31T19:21:23.183Z,99869.27
2022-07-31T19:24:17.517Z,99868.39
2022-07-31T19:26:57.872Z,99872.29
2022-07-31T19:29:41.054Z,99877.27
2022-07-31T19:32:15.293Z,99874.36
2022-07-31T19:34:47.981Z,99881.70
2022-07-31T19:37:20.371Z,99883.90
2022-07-31T19:39:50.149Z,99885.35
2022-07-31T19:42:20.973Z,99881.62
2022-07-31T19:44:53.194Z,99880.71
2022-07-31T19:47:22.947Z,99877.75
2022-07-31T19:49:55.658Z,99878.83
2022-07-31T19:52:25.408Z,99878.89
2022-07-31T19:54:55.311Z,99877.48
2022-07-31T19:57:27.542Z,99877.23
2022-07-31T19:59:58.798Z,99875.79
2022-07-31T20:02:33.297Z,99876.16
2022-07-31T20:05:05.128Z,99876.91
2022-07-31T20:07:35.197Z,99879.20
2022-07-31T20:10:05.170Z,99877.70
2022-07-31T20:12:34.945Z,99879.95
2022-07-31T20:15:04.705Z,99882.47
2022-07-31T20:17:34.281Z,99882.27
2022-07-31T20:20:15.605Z,99882.46
2022-07-31T20:22:45.479Z,99881.60
2022-07-31T20:25:19.617Z,99886.15
2022-07-31T20:27:50.489Z,99888.52
2022-07-31T20:30:21.713Z,99885.52
2022-07-31T20:32:52.661Z,99884.59
2022-07-31T20:35:32.833Z,99880.48
2022-07-31T20:38:16.010Z,99879.98
2022-07-31T20:40:53.131Z,99881.13
2022-07-31T20:43:25.426Z,99880.96
2022-07-31T20:45:56.883Z,99879.73
2022-07-31T20:48:31.070Z,99874.53
2022-07-31T20:51:02.342Z,99876.54
2022-07-31T20:53:32.243Z,99876.63
2022-07-31T20:56:01.647Z,99878.18
2022-07-31T20:58:30.848Z,99879.16
2022-07-31T21:01:00.238Z,99878.19
2022-07-31T21:03:29.573Z,99875.64
2022-07-31T21:05:58.798Z,99874.73
2022-07-31T21:08:28.589Z,99872.16
2022-07-31T21:11:01.111Z,99870.92
2022-07-31T21:13:30.644Z,99874.56
2022-07-31T21:16:00.260Z,99874.82
2022-07-31T21:18:34.690Z,99878.00
2022-07-31T21:21:04.783Z,99877.67
2022-07-31T21:23:34.110Z,99878.44
2022-07-31T21:26:07.271Z,99872.02
2022-07-31T21:28:39.566Z,99874.15
2022-07-31T21:31:09.821Z,99875.66
2022-07-31T21:33:40.215Z,99876.38
2022-07-31T21:36:13.079Z,99875.88
2022-07-31T21:38:44.801Z,99875.10
2022-07-31T21:41:19.410Z,99875.06
2022-07-31T21:43:58.680Z,99872.99
2022-07-31T21:46:29.992Z,99875.50
2022-07-31T21:49:00.098Z,99879.46
2022-07-31T21:51:30.450Z,99876.44
2022-07-31T21:53:59.809Z,99879.43
2022-07-31T21:56:29.390Z,99880.66
2022-07-31T21:58:58.606Z,99877.66
2022-07-31T22:01:27.954Z,99878.76
2022-07-31T22:03:57.299Z,99881.43
2022-07-31T22:06:44.448Z,99880.56
2022-07-31T22:09:14.002Z,99874.91
2022-07-31T22:12:01.373Z,99866.35
2022-07-31T22:14:31.314Z,99867.13
2022-07-31T22:17:00.659Z,99869.39
2022-07-31T22:19:31.129Z,99866.95
2022-07-31T22:22:02.764Z,99863.52
2022-07-31T22:24:33.266Z,99863.49
2022-07-31T22:27:23.278Z,99863.13
2022-07-31T22:29:53.058Z,99863.23
2022-07-31T22:32:22.774Z,99863.27
2022-07-31T22:34:52.391Z,99867.84
2022-07-31T22:37:22.969Z,99865.44
2022-07-31T22:39:52.381Z,99869.73
2022-07-31T22:42:22.369Z,99866.09
2022-07-31T22:44:51.981Z,99869.30
2022-07-31T22:47:21.978Z,99868.78
2022-07-31T22:49:51.764Z,99872.46
2022-07-31T22:52:21.155Z,99871.10
2022-07-31T22:54:50.424Z,99874.82
2022-07-31T22:57:19.864Z,99875.13
2022-07-31T22:59:49.173Z,99873.14
2022-07-31T23:02:19.060Z,99873.65
2022-07-31T23:04:48.340Z,99874.23
2022-07-31T23:07:17.700Z,99874.17
2022-07-31T23:09:46.957Z,99873.89
2022-07-31T23:12:16.205Z,99871.27
2022-07-31T23:14:45.529Z,99873.54
2022-07-31T23:17:22.894Z,99873.60
2022-07-31T23:19:54.335Z,99869.60
2022-07-31T23:22:33.552Z,99873.47
2022-07-31T23:25:03.449Z,99870.94
2022-07-31T23:27:33.002Z,99874.67
2022-07-31T23:30:05.949Z,99877.75
2022-07-31T23:32:35.310Z,99877.20
2022-07-31T23:35:04.953Z,99875.02
2022-07-31T23:37:34.239Z,99877.57
2022-07-31T23:40:04.443Z,99877.09
2022-07-31T23:42:39.700Z,99875.39
2022-07-31T23:45:12.181Z,99870.13
2022-07-31T23:47:45.823Z,99877.41
2022-07-31T23:50:16.997Z,99876.36
2022-07-31T23:52:46.313Z,99871.46
2022-07-31T23:55:15.550Z,99874.33
2022-07-31T23:57:44.836Z,99876.06
